createdAt,value
2022-10-17T00:01:06.468Z,13.99
2022-10-17T00:03:37.008Z,14.16
2022-10-17T00:06:10.640Z,14.01
2022-10-17T00:08:39.148Z,13.96
2022-10-17T00:11:13.196Z,13.93
2022-10-17T00:13:46.037Z,14.18
2022-10-17T00:16:13.137Z,14.16
2022-10-17T00:18:40.480Z,14.28
2022-10-17T00:21:16.673Z,14.12
2022-10-17T00:23:43.699Z,14.07
2022-10-17T00:26:10.802Z,13.84
2022-10-17T00:28:40.891Z,13.90
2022-10-17T00:31:08.258Z,13.78
2022-10-17T00:33:36.003Z,13.72
2022-10-17T00:36:26.556Z,13.63
2022-10-17T00:38:57.223Z,13.64
2022-10-17T00:41:29.933Z,13.62
2022-10-17T00:44:08.520Z,13.60
2022-10-17T00:46:39.678Z,13.62
2022-10-17T00:49:12.761Z,13.65
2022-10-17T00:51:49.884Z,13.63
2022-10-17T00:54:19.616Z,13.63
2022-10-17T00:56:48.194Z,13.66
2022-10-17T00:59:25.012Z,13.70
2022-10-17T01:02:02.273Z,13.66
2022-10-17T01:04:29.191Z,13.62
2022-10-17T01:06:56.178Z,13.63
2022-10-17T01:09:25.260Z,13.63
2022-10-17T01:12:11.506Z,13.66
2022-10-17T01:15:09.037Z,13.61
2022-10-17T01:17:43.330Z,13.71
2022-10-17T01:20:36.048Z,13.59
2022-10-17T01:23:26.370Z,13.71
2022-10-17T01:26:18.904Z,13.73
2022-10-17T01:28:56.028Z,13.63
2022-10-17T01:31:34.666Z,13.63
2022-10-17T01:34:21.594Z,13.67
2022-10-17T01:37:15.078Z,13.67
2022-10-17T01:40:05.413Z,13.65
2022-10-17T01:42:50.817Z,13.64
2022-10-17T01:45:44.335Z,13.59
2022-10-17T01:48:39.719Z,13.49
2022-10-17T01:51:17.168Z,13.62
2022-10-17T01:53:52.404Z,13.63
2022-10-17T01:56:23.423Z,13.58
2022-10-17T01:59:15.416Z,13.47
2022-10-17T02:01:53.145Z,13.48
2022-10-17T02:04:21.851Z,13.44
2022-10-17T02:06:48.845Z,13.41
2022-10-17T02:09:24.842Z,13.44
2022-10-17T02:12:26.248Z,13.29
2022-10-17T02:15:17.099Z,13.31
2022-10-17T02:18:03.020Z,13.16
2022-10-17T02:20:38.146Z,13.14
2022-10-17T02:23:14.242Z,13.33
2022-10-17T02:26:22.787Z,13.32
2022-10-17T02:29:10.424Z,13.41
2022-10-17T02:31:49.076Z,13.36
2022-10-17T02:34:19.925Z,13.36
2022-10-17T02:36:52.011Z,13.17
2022-10-17T02:39:23.668Z,13.15
2022-10-17T02:41:52.666Z,13.10
2022-10-17T02:44:23.148Z,13.02
2022-10-17T02:47:04.147Z,13.04
2022-10-17T02:49:36.847Z,13.14
2022-10-17T02:52:12.668Z,13.10
2022-10-17T02:54:52.986Z,13.08
2022-10-17T02:57:37.385Z,12.99
2022-10-17T03:00:07.825Z,13.00
2022-10-17T03:03:19.922Z,13.03
2022-10-17T03:05:47.957Z,13.09
2022-10-17T03:08:16.022Z,13.07
2022-10-17T03:10:43.997Z,12.98
2022-10-17T03:13:20.975Z,12.93
2022-10-17T03:15:49.005Z,12.87
2022-10-17T03:18:16.023Z,12.91
2022-10-17T03:20:43.053Z,12.93
2022-10-17T03:23:10.943Z,12.96
2022-10-17T03:25:37.973Z,12.94
2022-10-17T03:28:05.794Z,12.88
2022-10-17T03:30:33.326Z,12.96
2022-10-17T03:33:01.446Z,12.86
2022-10-17T03:35:28.595Z,12.90
2022-10-17T03:37:56.494Z,12.96
2022-10-17T03:40:23.566Z,12.97
2022-10-17T03:42:54.675Z,12.98
2022-10-17T03:45:21.567Z,12.90
2022-10-17T03:47:48.475Z,12.95
2022-10-17T03:50:16.467Z,12.85
2022-10-17T03:52:48.555Z,12.83
2022-10-17T03:55:16.512Z,12.85
2022-10-17T03:57:45.746Z,12.84
2022-10-17T04:00:13.405Z,12.86
2022-10-17T04:02:40.305Z,12.87
2022-10-17T04:05:08.082Z,12.87
2022-10-17T04:07:37.205Z,12.75
2022-10-17T04:10:05.227Z,12.79
2022-10-17T04:12:32.458Z,12.79
2022-10-17T04:15:00.502Z,12.75
2022-10-17T04:17:27.431Z,12.64
2022-10-17T04:20:00.658Z,12.67
2022-10-17T04:22:29.103Z,12.66
2022-10-17T04:24:56.427Z,12.65
2022-10-17T04:27:23.391Z,12.66
2022-10-17T04:29:50.437Z,12.52
2022-10-17T04:32:17.607Z,12.55
2022-10-17T04:34:44.620Z,12.57
2022-10-17T04:37:12.612Z,12.59
2022-10-17T04:39:39.518Z,12.46
2022-10-17T04:42:08.601Z,12.45
2022-10-17T04:44:35.994Z,12.39
2022-10-17T04:47:04.014Z,12.42
2022-10-17T04:49:32.037Z,12.30
2022-10-17T04:52:00.107Z,12.47
2022-10-17T04:54:27.046Z,12.51
2022-10-17T04:56:56.010Z,12.59
2022-10-17T04:59:22.980Z,12.29
2022-10-17T05:01:50.979Z,12.43
2022-10-17T05:04:22.381Z,12.47
2022-10-17T05:06:51.605Z,12.42
2022-10-17T05:09:21.758Z,12.43
2022-10-17T05:11:49.715Z,12.34
2022-10-17T05:14:19.765Z,12.37
2022-10-17T05:16:46.756Z,12.37
2022-10-17T05:19:14.688Z,12.41
2022-10-17T05:21:42.680Z,12.39
2022-10-17T05:24:11.953Z,12.26
2022-10-17T05:26:38.940Z,12.39
2022-10-17T05:29:06.034Z,12.44
2022-10-17T05:31:34.051Z,12.36
2022-10-17T05:34:02.874Z,12.41
2022-10-17T05:36:31.083Z,12.46
2022-10-17T05:38:58.035Z,12.52
2022-10-17T05:41:25.068Z,12.57
2022-10-17T05:43:51.942Z,12.67
2022-10-17T05:46:18.901Z,12.59
2022-10-17T05:48:45.958Z,12.73
2022-10-17T05:51:14.074Z,12.77
2022-10-17T05:53:42.473Z,12.78
2022-10-17T05:56:11.523Z,12.85
2022-10-17T05:58:50.921Z,12.85
2022-10-17T06:01:19.794Z,12.92
2022-10-17T06:03:47.036Z,12.96
2022-10-17T06:06:15.083Z,12.97
2022-10-17T06:08:42.434Z,12.98
2022-10-17T06:11:12.600Z,13.18
2022-10-17T06:13:40.202Z,13.14
2022-10-17T06:16:07.671Z,13.22
2022-10-17T06:18:35.752Z,13.33
2022-10-17T06:21:05.791Z,13.37
2022-10-17T06:23:33.254Z,13.39
2022-10-17T06:26:02.279Z,13.49
2022-10-17T06:28:29.559Z,13.52
2022-10-17T06:30:56.631Z,13.64
2022-10-17T06:33:24.049Z,13.75
2022-10-17T06:35:57.858Z,13.81
2022-10-17T06:38:25.764Z,13.98
2022-10-17T06:40:54.598Z,14.07
2022-10-17T06:43:27.001Z,14.14
2022-10-17T06:45:55.071Z,14.18
2022-10-17T06:48:22.058Z,14.25
2022-10-17T06:50:49.098Z,14.37
2022-10-17T06:53:16.076Z,14.46
2022-10-17T06:55:43.317Z,14.56
2022-10-17T06:58:10.301Z,14.62
2022-10-17T07:00:38.428Z,14.75
2022-10-17T07:03:05.406Z,14.92
2022-10-17T07:05:32.376Z,14.97
2022-10-17T07:07:59.279Z,15.05
2022-10-17T07:10:27.247Z,15.18
2022-10-17T07:12:54.102Z,15.28
2022-10-17T07:15:21.015Z,15.41
2022-10-17T07:17:51.084Z,15.42
2022-10-17T07:20:17.983Z,15.46
2022-10-17T07:22:44.921Z,15.57
2022-10-17T07:25:11.854Z,15.67
2022-10-17T07:27:38.786Z,15.86
2022-10-17T07:30:06.333Z,15.97
2022-10-17T07:32:33.303Z,16.03
2022-10-17T07:35:00.242Z,16.12
2022-10-17T07:37:27.391Z,16.21
2022-10-17T07:39:54.762Z,16.33
2022-10-17T07:42:21.663Z,16.50
2022-10-17T07:44:48.592Z,16.67
2022-10-17T07:47:15.536Z,16.69
2022-10-17T07:49:44.316Z,16.80
2022-10-17T07:52:12.897Z,16.99
2022-10-17T07:54:40.033Z,17.09
2022-10-17T07:57:10.092Z,17.26
2022-10-17T07:59:38.567Z,17.42
2022-10-17T08:02:05.949Z,17.50
2022-10-17T08:04:34.108Z,17.54
2022-10-17T08:07:18.383Z,17.74
2022-10-17T08:09:47.865Z,17.98
2022-10-17T08:12:15.168Z,17.94
2022-10-17T08:14:42.932Z,18.01
2022-10-17T08:17:10.536Z,18.20
2022-10-17T08:19:41.030Z,18.24
2022-10-17T08:22:08.453Z,18.32
2022-10-17T08:24:35.441Z,18.40
2022-10-17T08:27:02.699Z,18.62
2022-10-17T08:29:29.770Z,18.72
2022-10-17T08:32:00.918Z,18.74
2022-10-17T08:34:28.937Z,18.85
2022-10-17T08:36:56.049Z,18.84
2022-10-17T08:39:22.981Z,19.00
2022-10-17T08:42:09.376Z,19.20
2022-10-17T08:44:50.205Z,19.40
2022-10-17T08:47:29.797Z,19.68
2022-10-17T08:50:03.236Z,19.67
2022-10-17T08:52:49.418Z,20.48
2022-10-17T08:55:49.667Z,21.78
2022-10-17T08:58:26.323Z,23.09
2022-10-17T09:01:02.243Z,24.41
2022-10-17T09:03:38.622Z,24.78
2022-10-17T09:06:39.116Z,25.21
2022-10-17T09:09:11.998Z,25.56
2022-10-17T09:11:39.014Z,25.68
2022-10-17T09:14:43.419Z,26.26
2022-10-17T09:17:28.873Z,27.57
2022-10-17T09:20:05.354Z,25.98
2022-10-17T09:22:45.161Z,26.30
2022-10-17T09:25:16.054Z,26.91
2022-10-17T09:27:50.342Z,27.08
2022-10-17T09:30:46.400Z,26.67
2022-10-17T09:33:35.612Z,27.79
2022-10-17T09:36:14.707Z,28.46
2022-10-17T09:38:45.936Z,28.16
2022-10-17T09:41:44.440Z,27.77
2022-10-17T09:44:22.256Z,27.35
2022-10-17T09:47:18.339Z,26.75
2022-10-17T09:49:47.494Z,26.91
2022-10-17T09:52:18.842Z,27.91
2022-10-17T09:54:56.320Z,28.47
2022-10-17T09:57:23.346Z,28.53
2022-10-17T10:00:06.236Z,27.88
2022-10-17T10:02:36.657Z,27.64
2022-10-17T10:05:17.198Z,27.52
2022-10-17T10:08:01.871Z,28.26
2022-10-17T10:10:30.448Z,28.73
2022-10-17T10:13:20.462Z,30.11
2022-10-17T10:15:50.212Z,29.49
2022-10-17T10:18:33.312Z,28.56
2022-10-17T10:21:08.611Z,27.71
2022-10-17T10:23:40.624Z,28.58
2022-10-17T10:26:30.355Z,27.04
2022-10-17T10:29:01.342Z,27.05
2022-10-17T10:31:38.865Z,27.76
2022-10-17T10:34:27.668Z,26.87
2022-10-17T10:36:57.421Z,27.98
2022-10-17T10:39:24.348Z,28.89
2022-10-17T10:41:51.394Z,29.31
2022-10-17T10:44:24.224Z,29.21
2022-10-17T10:47:17.579Z,29.37
2022-10-17T10:49:45.949Z,28.77
2022-10-17T10:52:22.814Z,28.97
2022-10-17T10:55:18.056Z,28.39
2022-10-17T10:57:47.940Z,29.32
2022-10-17T11:00:23.166Z,28.17
2022-10-17T11:03:16.651Z,26.38
2022-10-17T11:05:49.872Z,27.14
2022-10-17T11:08:25.939Z,26.50
2022-10-17T11:11:18.409Z,26.12
2022-10-17T11:13:53.383Z,27.04
2022-10-17T11:16:29.286Z,27.48
2022-10-17T11:19:07.609Z,27.05
2022-10-17T11:21:48.472Z,26.71
2022-10-17T11:24:39.934Z,26.55
2022-10-17T11:27:08.490Z,27.05
2022-10-17T11:29:39.769Z,27.73
2022-10-17T11:32:18.337Z,28.11
2022-10-17T11:34:50.172Z,26.46
2022-10-17T11:37:26.731Z,26.18
2022-10-17T11:39:56.195Z,25.95
2022-10-17T11:42:52.073Z,25.88
2022-10-17T11:45:23.879Z,25.81
2022-10-17T11:47:59.697Z,25.47
2022-10-17T11:53:41.212Z,25.86
2022-10-17T11:56:11.517Z,25.48
2022-10-17T11:58:57.019Z,25.49
2022-10-17T12:01:47.195Z,26.25
2022-10-17T12:04:39.575Z,26.39
2022-10-17T12:07:12.892Z,26.11
2022-10-17T12:09:58.798Z,26.49
2022-10-17T12:12:30.344Z,26.29
2022-10-17T12:15:25.657Z,26.14
2022-10-17T12:18:17.469Z,25.65
2022-10-17T12:20:56.892Z,25.94
2022-10-17T12:23:32.455Z,26.35
2022-10-17T12:26:05.865Z,26.15
2022-10-17T12:28:39.521Z,25.80
2022-10-17T12:31:13.263Z,26.01
2022-10-17T12:34:01.471Z,25.67
2022-10-17T12:36:28.690Z,25.63
2022-10-17T12:39:04.585Z,25.38
2022-10-17T12:41:45.025Z,25.14
2022-10-17T12:44:15.242Z,24.94
2022-10-17T12:47:08.267Z,25.47
2022-10-17T12:49:48.801Z,25.42
2022-10-17T12:52:25.785Z,24.98
2022-10-17T12:55:12.034Z,25.27
2022-10-17T12:57:51.962Z,25.23
2022-10-17T13:00:18.866Z,25.20
2022-10-17T13:02:46.623Z,25.28
2022-10-17T13:05:46.152Z,25.75
2022-10-17T13:08:22.508Z,26.60
2022-10-17T13:10:52.879Z,25.78
2022-10-17T13:13:26.759Z,25.78
2022-10-17T13:15:55.565Z,25.85
2022-10-17T13:18:28.810Z,25.60
2022-10-17T13:21:01.948Z,25.36
2022-10-17T13:23:36.620Z,25.46
2022-10-17T13:26:15.267Z,26.65
2022-10-17T13:28:44.770Z,27.02
2022-10-17T13:31:34.750Z,26.56
2022-10-17T13:34:05.700Z,26.50
2022-10-17T13:36:38.841Z,26.33
2022-10-17T13:39:19.689Z,26.05
2022-10-17T13:41:53.678Z,26.14
2022-10-17T13:44:23.538Z,26.06
2022-10-17T13:46:51.196Z,25.57
2022-10-17T13:49:25.716Z,25.89
2022-10-17T13:51:56.508Z,25.48
2022-10-17T13:54:45.183Z,25.79
2022-10-17T13:57:26.040Z,25.35
2022-10-17T13:59:57.495Z,25.23
2022-10-17T14:02:27.912Z,24.96
2022-10-17T14:05:18.156Z,24.45
2022-10-17T14:08:12.066Z,24.93
2022-10-17T14:10:43.702Z,24.68
2022-10-17T14:13:23.269Z,24.45
2022-10-17T14:15:51.444Z,24.75
2022-10-17T14:18:22.932Z,24.53
2022-10-17T14:23:41.715Z,23.96
2022-10-17T14:26:29.092Z,24.12
2022-10-17T14:29:07.855Z,23.78
2022-10-17T14:31:37.160Z,24.23
2022-10-17T14:34:05.563Z,23.96
2022-10-17T14:36:36.586Z,23.87
2022-10-17T14:39:08.494Z,23.76
2022-10-17T14:41:44.285Z,23.71
2022-10-17T14:44:23.221Z,23.80
2022-10-17T14:46:54.583Z,23.49
2022-10-17T14:49:41.201Z,23.90
2022-10-17T14:52:17.707Z,23.47
2022-10-17T14:54:47.583Z,23.54
2022-10-17T14:57:41.064Z,23.23
2022-10-17T15:00:08.575Z,23.21
2022-10-17T15:02:36.389Z,23.27
2022-10-17T15:05:03.329Z,23.16
2022-10-17T15:07:30.249Z,22.95
2022-10-17T15:09:57.487Z,22.72
2022-10-17T15:12:25.973Z,23.00
2022-10-17T15:14:53.703Z,22.71
2022-10-17T15:17:25.529Z,22.89
2022-10-17T15:19:52.539Z,22.72
2022-10-17T15:22:19.889Z,22.55
2022-10-17T15:24:47.297Z,22.48
2022-10-17T15:27:23.491Z,22.32
2022-10-17T15:29:51.922Z,22.10
2022-10-17T15:32:19.101Z,21.80
2022-10-17T15:34:48.127Z,21.60
2022-10-17T15:37:24.608Z,21.49
2022-10-17T15:39:54.716Z,21.32
2022-10-17T15:42:27.271Z,21.09
2022-10-17T15:44:54.941Z,20.86
2022-10-17T15:47:28.904Z,20.87
2022-10-17T15:50:01.053Z,20.71
2022-10-17T15:52:28.670Z,20.60
2022-10-17T15:54:58.385Z,20.45
2022-10-17T15:57:30.891Z,20.47
2022-10-17T16:00:00.480Z,20.34
2022-10-17T16:02:29.521Z,20.36
2022-10-17T16:04:56.518Z,20.17
2022-10-17T16:07:26.615Z,20.14
2022-10-17T16:09:53.585Z,20.06
2022-10-17T16:12:29.199Z,20.04
2022-10-17T16:14:59.420Z,19.94
2022-10-17T16:17:32.446Z,19.86
2022-10-17T16:20:00.657Z,19.81
2022-10-17T16:22:32.738Z,19.69
2022-10-17T16:25:07.889Z,19.72
2022-10-17T16:27:37.778Z,19.71
2022-10-17T16:30:07.717Z,19.67
2022-10-17T16:32:35.253Z,19.61
2022-10-17T16:35:08.887Z,19.56
2022-10-17T16:37:36.324Z,19.58
2022-10-17T16:40:04.669Z,19.56
2022-10-17T16:42:46.511Z,19.53
2022-10-17T16:45:32.900Z,19.50
2022-10-17T16:47:59.949Z,19.44
2022-10-17T16:50:53.529Z,19.41
2022-10-17T16:53:20.597Z,19.37
2022-10-17T16:56:02.674Z,19.31
2022-10-17T16:58:32.661Z,19.28
2022-10-17T17:01:04.896Z,19.28
2022-10-17T17:03:43.914Z,19.26
2022-10-17T17:06:19.092Z,19.18
2022-10-17T17:08:46.242Z,19.18
2022-10-17T17:11:16.042Z,19.08
2022-10-17T17:13:42.938Z,19.11
2022-10-17T17:16:22.344Z,19.09
2022-10-17T17:18:54.210Z,19.05
2022-10-17T17:21:21.551Z,19.03
2022-10-17T17:23:49.284Z,18.96
2022-10-17T17:26:20.445Z,18.96
2022-10-17T17:28:50.148Z,18.91
2022-10-17T17:31:23.312Z,18.87
2022-10-17T17:33:52.234Z,18.88
2022-10-17T17:36:24.731Z,18.78
2022-10-17T17:38:54.540Z,18.74
2022-10-17T17:41:22.573Z,18.71
2022-10-17T17:43:51.413Z,18.70
2022-10-17T17:46:20.014Z,18.66
2022-10-17T17:48:49.395Z,18.64
2022-10-17T17:51:26.910Z,18.62
2022-10-17T17:53:57.600Z,18.64
2022-10-17T17:56:27.220Z,18.57
2022-10-17T17:58:59.330Z,18.54
2022-10-17T18:01:29.959Z,18.47
2022-10-17T18:04:01.198Z,18.45
2022-10-17T18:06:28.934Z,18.36
2022-10-17T18:08:58.438Z,18.33
2022-10-17T18:11:30.544Z,18.29
2022-10-17T18:14:02.171Z,18.26
2022-10-17T18:16:31.146Z,18.22
2022-10-17T18:19:04.093Z,18.15
2022-10-17T18:21:34.796Z,18.17
2022-10-17T18:24:03.379Z,18.15
2022-10-17T18:26:31.093Z,18.11
2022-10-17T18:28:59.198Z,18.07
2022-10-17T18:31:32.468Z,18.06
2022-10-17T18:34:03.086Z,18.05
2022-10-17T18:36:32.161Z,18.00
2022-10-17T18:39:01.084Z,17.94
2022-10-17T18:41:35.246Z,17.94
2022-10-17T18:44:05.827Z,17.88
2022-10-17T18:46:36.893Z,17.89
2022-10-17T18:49:04.177Z,17.89
2022-10-17T18:51:31.790Z,17.79
2022-10-17T18:53:59.271Z,17.77
2022-10-17T18:56:30.374Z,17.76
2022-10-17T18:58:58.613Z,17.72
2022-10-17T19:01:28.739Z,17.71
2022-10-17T19:03:58.343Z,17.67
2022-10-17T19:06:28.613Z,17.65
2022-10-17T19:08:56.657Z,17.66
2022-10-17T19:11:25.778Z,17.65
2022-10-17T19:13:53.597Z,17.64
2022-10-17T19:16:32.876Z,17.56
2022-10-17T19:19:02.945Z,17.61
2022-10-17T19:21:30.574Z,17.58
2022-10-17T19:24:01.221Z,17.56
2022-10-17T19:26:30.413Z,17.56
2022-10-17T19:28:57.629Z,17.47
2022-10-17T19:31:27.318Z,17.48
2022-10-17T19:33:55.790Z,17.45
2022-10-17T19:36:29.021Z,17.41
2022-10-17T19:39:00.148Z,17.46
2022-10-17T19:41:28.754Z,17.38
2022-10-17T19:43:56.127Z,17.40
2022-10-17T19:46:27.656Z,17.35
2022-10-17T19:48:55.162Z,17.37
2022-10-17T19:51:27.092Z,17.33
2022-10-17T19:53:56.012Z,17.32
2022-10-17T19:56:25.161Z,17.32
2022-10-17T19:58:54.535Z,17.29
2022-10-17T20:01:26.720Z,17.29
2022-10-17T20:03:59.941Z,17.23
2022-10-17T20:06:28.003Z,17.21
2022-10-17T20:09:04.957Z,17.18
2022-10-17T20:11:33.443Z,17.19
2022-10-17T20:14:08.099Z,17.16
2022-10-17T20:16:39.289Z,17.11
2022-10-17T20:19:10.541Z,17.10
2022-10-17T20:21:40.193Z,17.09
2022-10-17T20:24:35.546Z,17.10
2022-10-17T20:27:04.554Z,17.04
2022-10-17T20:29:38.737Z,17.00
2022-10-17T20:32:06.039Z,16.96
2022-10-17T20:34:38.097Z,16.95
2022-10-17T20:37:06.181Z,16.91
2022-10-17T20:39:44.294Z,16.88
2022-10-17T20:42:12.426Z,16.92
2022-10-17T20:44:48.715Z,16.83
2022-10-17T20:47:47.210Z,16.83
2022-10-17T20:50:46.554Z,16.89
2022-10-17T20:53:36.924Z,16.93
2022-10-17T20:56:13.653Z,16.88
2022-10-17T20:58:41.625Z,16.82
2022-10-17T21:01:26.734Z,16.83
2022-10-17T21:04:09.425Z,16.79
2022-10-17T21:06:52.134Z,16.83
2022-10-17T21:09:38.824Z,16.84
2022-10-17T21:12:05.929Z,16.84
2022-10-17T21:14:33.966Z,16.76
2022-10-17T21:17:04.669Z,16.84
2022-10-17T21:19:50.406Z,16.83
2022-10-17T21:22:37.640Z,16.84
2022-10-17T21:25:11.702Z,16.82
2022-10-17T21:27:58.070Z,16.68
2022-10-17T21:30:25.040Z,16.68
2022-10-17T21:33:01.284Z,16.60
2022-10-17T21:35:29.260Z,16.71
2022-10-17T21:37:58.335Z,16.77
2022-10-17T21:40:25.407Z,16.75
2022-10-17T21:42:53.406Z,16.70
2022-10-17T21:45:29.778Z,16.69
2022-10-17T21:48:14.996Z,16.51
2022-10-17T21:50:42.009Z,16.63
2022-10-17T21:53:29.599Z,16.68
2022-10-17T21:56:01.617Z,16.66
2022-10-17T21:58:34.036Z,16.63
2022-10-17T22:01:15.429Z,16.66
2022-10-17T22:03:46.787Z,16.57
2022-10-17T22:06:44.000Z,16.52
2022-10-17T22:09:23.974Z,16.30
2022-10-17T22:11:54.173Z,16.32
2022-10-17T22:14:25.362Z,16.35
2022-10-17T22:16:59.589Z,16.36
2022-10-17T22:19:39.612Z,16.32
2022-10-17T22:22:25.016Z,16.23
2022-10-17T22:24:56.003Z,16.17
2022-10-17T22:27:24.947Z,16.07
2022-10-17T22:29:57.945Z,16.20
2022-10-17T22:32:24.962Z,15.89
2022-10-17T22:34:51.911Z,15.97
2022-10-17T22:37:19.901Z,16.09
2022-10-17T22:39:47.890Z,16.18
2022-10-17T22:42:15.462Z,16.15
2022-10-17T22:44:46.721Z,16.10
2022-10-17T22:47:14.725Z,16.11
2022-10-17T22:49:42.677Z,16.19
2022-10-17T22:52:17.665Z,16.18
2022-10-17T22:54:51.477Z,16.19
2022-10-17T22:57:21.385Z,16.22
2022-10-17T22:59:50.383Z,16.15
2022-10-17T23:02:19.353Z,16.11
2022-10-17T23:04:49.478Z,16.07
2022-10-17T23:07:46.648Z,16.09
2022-10-17T23:10:13.577Z,16.01
2022-10-17T23:12:41.501Z,16.02
2022-10-17T23:15:09.083Z,15.99
2022-10-17T23:17:40.175Z,15.96
2022-10-17T23:20:07.734Z,15.96
2022-10-17T23:22:35.636Z,15.92
2022-10-17T23:25:04.882Z,15.92
2022-10-17T23:27:36.064Z,15.89
2022-10-17T23:30:05.263Z,15.87
2022-10-17T23:32:40.994Z,15.82
2022-10-17T23:35:08.866Z,15.72
2022-10-17T23:37:42.885Z,15.75
2022-10-17T23:40:17.203Z,15.74
2022-10-17T23:42:45.520Z,15.69
2022-10-17T23:45:12.631Z,15.72
2022-10-17T23:47:39.685Z,15.54
2022-10-17T23:50:09.838Z,15.63
2022-10-17T23:52:36.893Z,15.46
2022-10-17T23:55:08.646Z,15.32
2022-10-17T23:57:41.602Z,15.44
